sensor_id;sensor_type;location;lat;lon;timestamp;pressure;altitude;pressure_sealevel;temperature;humidity
10392;BME280;5242;49.244;6.774;2023-07-13T00:07:24;99570.91;;;14.90;71.17
10392;BME280;5242;49.244;6.774;2023-07-13T00:15:19;99570.41;;;14.74;73.59
10392;BME280;5242;49.244;6.774;2023-07-13T00:23:14;99571.47;;;14.59;73.65
10392;BME280;5242;49.244;6.774;2023-07-13T00:31:07;99569.81;;;14.50;76.52
10392;BME280;5242;49.244;6.774;2023-07-13T00:39:00;99568.97;;;14.46;76.27
10392;BME280;5242;49.244;6.774;2023-07-13T00:46:52;99566.19;;;14.39;76.75
10392;BME280;5242;49.244;6.774;2023-07-13T00:54:45;99596.53;;;14.20;74.74
10392;BME280;5242;49.244;6.774;2023-07-13T01:02:40;99587.28;;;13.94;78.50
10392;BME280;5242;49.244;6.774;2023-07-13T01:10:34;99599.66;;;13.81;78.02
10392;BME280;5242;49.244;6.774;2023-07-13T01:18:31;99606.59;;;13.75;78.29
10392;BME280;5242;49.244;6.774;2023-07-13T01:26:24;99605.78;;;13.70;80.44
10392;BME280;5242;49.244;6.774;2023-07-13T01:34:15;99609.72;;;13.73;80.79
10392;BME280;5242;49.244;6.774;2023-07-13T01:42:08;99609.66;;;13.69;79.69
10392;BME280;5242;49.244;6.774;2023-07-13T01:50:00;99611.53;;;13.62;77.56
10392;BME280;5242;49.244;6.774;2023-07-13T01:57:52;99606.25;;;13.46;81.32
10392;BME280;5242;49.244;6.774;2023-07-13T02:05:44;99609.41;;;13.48;83.52
10392;BME280;5242;49.244;6.774;2023-07-13T02:13:36;99617.38;;;13.60;80.93
10392;BME280;5242;49.244;6.774;2023-07-13T02:21:28;99622.94;;;13.67;79.94
10392;BME280;5242;49.244;6.774;2023-07-13T02:29:20;99617.19;;;13.46;81.25
10392;BME280;5242;49.244;6.774;2023-07-13T02:37:12;99615.19;;;13.16;83.90
10392;BME280;5242;49.244;6.774;2023-07-13T02:45:04;99619.72;;;13.05;84.23
10392;BME280;5242;49.244;6.774;2023-07-13T02:52:56;99628.09;;;12.93;83.38
10392;BME280;5242;49.244;6.774;2023-07-13T03:00:48;99635.16;;;12.94;84.33
10392;BME280;5242;49.244;6.774;2023-07-13T03:08:42;99647.78;;;13.02;83.14
10392;BME280;5242;49.244;6.774;2023-07-13T03:16:34;99637.94;;;12.97;83.55
10392;BME280;5242;49.244;6.774;2023-07-13T03:24:26;99654.09;;;13.06;87.51
10392;BME280;5242;49.244;6.774;2023-07-13T03:32:17;99656.72;;;13.25;83.92
10392;BME280;5242;49.244;6.774;2023-07-13T03:40:10;99663.22;;;13.40;84.43
10392;BME280;5242;49.244;6.774;2023-07-13T03:48:02;99657.91;;;13.51;85.02
10392;BME280;5242;49.244;6.774;2023-07-13T03:55:54;99660.31;;;13.56;82.87
10392;BME280;5242;49.244;6.774;2023-07-13T04:03:45;99662.00;;;13.64;84.25
10392;BME280;5242;49.244;6.774;2023-07-13T04:11:39;99673.41;;;13.70;83.40
10392;BME280;5242;49.244;6.774;2023-07-13T04:19:31;99673.78;;;13.68;83.67
10392;BME280;5242;49.244;6.774;2023-07-13T04:27:22;99680.06;;;13.73;88.25
10392;BME280;5242;49.244;6.774;2023-07-13T04:35:16;99691.19;;;13.83;89.67
10392;BME280;5242;49.244;6.774;2023-07-13T04:43:08;99677.84;;;13.82;91.22
10392;BME280;5242;49.244;6.774;2023-07-13T04:51:01;99681.78;;;13.81;93.16
10392;BME280;5242;49.244;6.774;2023-07-13T04:58:53;99703.03;;;13.91;90.08
10392;BME280;5242;49.244;6.774;2023-07-13T05:06:45;99704.03;;;14.09;89.89
10392;BME280;5242;49.244;6.774;2023-07-13T05:14:36;99707.00;;;14.31;88.62
10392;BME280;5242;49.244;6.774;2023-07-13T05:22:28;99713.28;;;14.65;89.13
10392;BME280;5242;49.244;6.774;2023-07-13T05:30:20;99714.06;;;15.10;88.66
10392;BME280;5242;49.244;6.774;2023-07-13T05:38:12;99711.56;;;15.42;87.89
10392;BME280;5242;49.244;6.774;2023-07-13T05:46:04;99724.22;;;15.58;86.98
10392;BME280;5242;49.244;6.774;2023-07-13T05:53:56;99728.53;;;15.59;86.74
10392;BME280;5242;49.244;6.774;2023-07-13T06:01:49;99734.72;;;16.04;85.48
10392;BME280;5242;49.244;6.774;2023-07-13T06:09:41;99734.19;;;16.79;80.36
10392;BME280;5242;49.244;6.774;2023-07-13T06:17:32;99734.22;;;17.39;79.03
10392;BME280;5242;49.244;6.774;2023-07-13T06:25:26;99740.44;;;17.76;76.09
10392;BME280;5242;49.244;6.774;2023-07-13T06:33:18;99739.59;;;18.08;75.45
10392;BME280;5242;49.244;6.774;2023-07-13T06:41:09;99748.94;;;18.32;75.05
10392;BME280;5242;49.244;6.774;2023-07-13T06:49:02;99750.31;;;18.79;69.52
10392;BME280;5242;49.244;6.774;2023-07-13T06:56:54;99759.94;;;19.13;69.82
10392;BME280;5242;49.244;6.774;2023-07-13T07:04:45;99759.94;;;19.61;67.69
10392;BME280;5242;49.244;6.774;2023-07-13T07:12:37;99760.56;;;20.48;64.84
10392;BME280;5242;49.244;6.774;2023-07-13T07:20:29;99766.81;;;21.34;60.03
10392;BME280;5242;49.244;6.774;2023-07-13T07:28:22;99775.53;;;21.59;57.59
10392;BME280;5242;49.244;6.774;2023-07-13T07:36:16;99777.31;;;22.33;54.73
10392;BME280;5242;49.244;6.774;2023-07-13T07:44:11;99769.19;;;22.98;52.17
10392;BME280;5242;49.244;6.774;2023-07-13T07:52:04;99780.56;;;23.20;52.07
10392;BME280;5242;49.244;6.774;2023-07-13T07:59:56;99780.88;;;23.72;51.19
10392;BME280;5242;49.244;6.774;2023-07-13T08:07:50;99774.59;;;24.42;47.76
10392;BME280;5242;49.244;6.774;2023-07-13T08:15:42;99778.91;;;24.85;46.77
10392;BME280;5242;49.244;6.774;2023-07-13T08:23:35;99762.91;;;25.85;44.14
10392;BME280;5242;49.244;6.774;2023-07-13T08:31:26;99760.56;;;26.49;43.35
10392;BME280;5242;49.244;6.774;2023-07-13T08:39:18;99757.84;;;26.58;41.81
10392;BME280;5242;49.244;6.774;2023-07-13T08:47:14;99763.69;;;26.51;43.32
10392;BME280;5242;49.244;6.774;2023-07-13T08:55:14;99756.59;;;27.49;39.44
10392;BME280;5242;49.244;6.774;2023-07-13T09:03:16;99759.44;;;29.80;37.96
10392;BME280;5242;49.244;6.774;2023-07-13T09:19:20;99747.41;;;33.93;30.46
10392;BME280;5242;49.244;6.774;2023-07-13T09:27:22;99755.16;;;35.11;29.90
10392;BME280;5242;49.244;6.774;2023-07-13T09:35:18;99746.63;;;35.00;29.85
10392;BME280;5242;49.244;6.774;2023-07-13T09:43:13;99735.66;;;35.55;24.25
10392;BME280;5242;49.244;6.774;2023-07-13T09:51:12;99751.72;;;35.30;25.26
10392;BME280;5242;49.244;6.774;2023-07-13T09:59:18;99756.88;;;35.25;25.96
10392;BME280;5242;49.244;6.774;2023-07-13T10:07:12;99758.78;;;34.16;26.76
10392;BME280;5242;49.244;6.774;2023-07-13T10:15:23;99756.28;;;33.09;27.79
10392;BME280;5242;49.244;6.774;2023-07-13T10:23:21;99760.66;;;32.73;27.60
10392;BME280;5242;49.244;6.774;2023-07-13T10:31:16;99744.13;;;33.46;26.79
10392;BME280;5242;49.244;6.774;2023-07-13T10:39:24;99752.91;;;32.62;27.54
10392;BME280;5242;49.244;6.774;2023-07-13T10:47:17;99755.97;;;34.72;23.15
10392;BME280;5242;49.244;6.774;2023-07-13T11:03:35;99750.50;;;35.02;22.38
10392;BME280;5242;49.244;6.774;2023-07-13T11:11:36;99755.09;;;32.90;25.36
10392;BME280;5242;49.244;6.774;2023-07-13T11:19:38;99747.13;;;33.26;24.82
10392;BME280;5242;49.244;6.774;2023-07-13T11:27:35;99762.50;;;31.16;25.76
10392;BME280;5242;49.244;6.774;2023-07-13T11:35:27;99761.97;;;29.93;27.31
10392;BME280;5242;49.244;6.774;2023-07-13T11:43:19;99759.34;;;29.51;27.89
10392;BME280;5242;49.244;6.774;2023-07-13T11:59:12;99771.53;;;28.11;29.52
10392;BME280;5242;49.244;6.774;2023-07-13T12:07:14;99772.97;;;27.97;29.75
10392;BME280;5242;49.244;6.774;2023-07-13T12:15:07;99771.09;;;28.03;29.79
10392;BME280;5242;49.244;6.774;2023-07-13T12:23:00;99773.44;;;28.05;29.44
10392;BME280;5242;49.244;6.774;2023-07-13T12:30:58;99769.38;;;27.87;29.81
10392;BME280;5242;49.244;6.774;2023-07-13T12:38:51;99784.84;;;27.42;30.03
10392;BME280;5242;49.244;6.774;2023-07-13T12:46:55;99782.28;;;27.07;30.82
10392;BME280;5242;49.244;6.774;2023-07-13T12:55:20;99782.34;;;27.26;31.04
10392;BME280;5242;49.244;6.774;2023-07-13T13:03:21;99767.66;;;29.12;29.21
10392;BME280;5242;49.244;6.774;2023-07-13T13:11:19;99759.88;;;30.62;27.75
10392;BME280;5242;49.244;6.774;2023-07-13T13:19:21;99763.66;;;30.74;26.80
10392;BME280;5242;49.244;6.774;2023-07-13T13:27:21;99761.59;;;28.71;28.88
10392;BME280;5242;49.244;6.774;2023-07-13T13:35:15;99756.03;;;27.82;29.96
10392;BME280;5242;49.244;6.774;2023-07-13T13:43:26;99759.41;;;27.77;30.28
10392;BME280;5242;49.244;6.774;2023-07-13T13:51:20;99755.75;;;28.59;29.15
10392;BME280;5242;49.244;6.774;2023-07-13T13:59:13;99748.09;;;29.02;28.58
10392;BME280;5242;49.244;6.774;2023-07-13T14:07:07;99730.94;;;29.10;27.76
10392;BME280;5242;49.244;6.774;2023-07-13T14:14:59;99743.75;;;29.74;26.60
10392;BME280;5242;49.244;6.774;2023-07-13T14:22:54;99742.19;;;29.73;25.72
10392;BME280;5242;49.244;6.774;2023-07-13T14:30:46;99732.03;;;29.03;26.59
10392;BME280;5242;49.244;6.774;2023-07-13T14:38:38;99739.03;;;28.74;27.27
10392;BME280;5242;49.244;6.774;2023-07-13T14:46:32;99723.00;;;28.99;27.32
10392;BME280;5242;49.244;6.774;2023-07-13T14:54:25;99721.03;;;29.23;26.94
10392;BME280;5242;49.244;6.774;2023-07-13T15:02:24;99733.44;;;29.08;26.94
10392;BME280;5242;49.244;6.774;2023-07-13T15:10:29;99724.63;;;28.91;27.63
10392;BME280;5242;49.244;6.774;2023-07-13T15:18:23;99722.56;;;28.67;27.57
10392;BME280;5242;49.244;6.774;2023-07-13T15:26:17;99718.88;;;28.52;28.19
10392;BME280;5242;49.244;6.774;2023-07-13T15:34:12;99726.56;;;28.33;28.45
10392;BME280;5242;49.244;6.774;2023-07-13T15:42:05;99720.53;;;28.16;28.27
10392;BME280;5242;49.244;6.774;2023-07-13T15:49:56;99717.09;;;28.12;28.76
10392;BME280;5242;49.244;6.774;2023-07-13T15:57:51;99704.75;;;28.37;28.20
10392;BME280;5242;49.244;6.774;2023-07-13T16:05:43;99694.81;;;28.27;28.50
10392;BME280;5242;49.244;6.774;2023-07-13T16:13:35;99697.53;;;28.03;28.81
10392;BME280;5242;49.244;6.774;2023-07-13T16:21:44;99697.53;;;27.66;29.05
10392;BME280;5242;49.244;6.774;2023-07-13T16:29:37;99699.13;;;27.48;29.35
10392;BME280;5242;49.244;6.774;2023-07-13T16:37:30;99697.84;;;27.31;29.71
10392;BME280;5242;49.244;6.774;2023-07-13T16:45:32;99699.97;;;27.08;29.94
10392;BME280;5242;49.244;6.774;2023-07-13T16:53:28;99706.13;;;26.94;30.41
10392;BME280;5242;49.244;6.774;2023-07-13T17:01:20;99706.63;;;26.93;30.58
10392;BME280;5242;49.244;6.774;2023-07-13T17:09:12;99715.28;;;26.85;30.28
10392;BME280;5242;49.244;6.774;2023-07-13T17:17:17;99706.53;;;26.65;30.67
10392;BME280;5242;49.244;6.774;2023-07-13T17:25:12;99701.56;;;26.38;31.07
10392;BME280;5242;49.244;6.774;2023-07-13T17:33:05;99709.19;;;26.15;31.65
10392;BME280;5242;49.244;6.774;2023-07-13T17:41:00;99712.25;;;25.86;31.97
10392;BME280;5242;49.244;6.774;2023-07-13T17:48:53;99701.47;;;25.75;32.36
10392;BME280;5242;49.244;6.774;2023-07-13T17:56:45;99706.56;;;25.55;32.60
10392;BME280;5242;49.244;6.774;2023-07-13T18:04:37;99718.38;;;25.24;32.91
10392;BME280;5242;49.244;6.774;2023-07-13T18:12:29;99717.50;;;24.89;33.60
10392;BME280;5242;49.244;6.774;2023-07-13T18:20:22;99722.09;;;24.70;34.46
10392;BME280;5242;49.244;6.774;2023-07-13T18:28:15;99710.41;;;24.62;34.43
10392;BME280;5242;49.244;6.774;2023-07-13T18:36:11;99710.09;;;24.31;35.23
10392;BME280;5242;49.244;6.774;2023-07-13T18:44:05;99717.00;;;23.84;36.84
10392;BME280;5242;49.244;6.774;2023-07-13T18:51:57;99720.84;;;23.12;38.74
10392;BME280;5242;49.244;6.774;2023-07-13T18:59:49;99721.06;;;22.69;39.75
10392;BME280;5242;49.244;6.774;2023-07-13T19:07:41;99737.00;;;22.28;39.77
10392;BME280;5242;49.244;6.774;2023-07-13T19:15:33;99742.19;;;21.86;42.15
10392;BME280;5242;49.244;6.774;2023-07-13T19:23:33;99742.47;;;21.48;43.03
10392;BME280;5242;49.244;6.774;2023-07-13T19:31:31;99747.84;;;21.09;43.25
10392;BME280;5242;49.244;6.774;2023-07-13T19:39:37;99754.66;;;20.77;44.68
10392;BME280;5242;49.244;6.774;2023-07-13T19:47:30;99751.09;;;20.46;46.26
10392;BME280;5242;49.244;6.774;2023-07-13T19:55:23;99757.47;;;20.08;48.76
10392;BME280;5242;49.244;6.774;2023-07-13T20:03:15;99777.88;;;19.84;49.52
10392;BME280;5242;49.244;6.774;2023-07-13T20:11:07;99787.28;;;19.45;50.73
10392;BME280;5242;49.244;6.774;2023-07-13T20:19:01;99796.56;;;19.17;52.06
10392;BME280;5242;49.244;6.774;2023-07-13T20:26:52;99798.25;;;19.03;52.59
10392;BME280;5242;49.244;6.774;2023-07-13T20:34:44;99804.25;;;18.87;53.48
10392;BME280;5242;49.244;6.774;2023-07-13T20:42:36;99795.25;;;18.76;54.13
10392;BME280;5242;49.244;6.774;2023-07-13T20:50:30;99804.78;;;18.57;53.67
10392;BME280;5242;49.244;6.774;2023-07-13T20:58:22;99812.72;;;18.37;56.24
10392;BME280;5242;49.244;6.774;2023-07-13T21:06:17;99804.88;;;18.25;57.79
10392;BME280;5242;49.244;6.774;2023-07-13T21:14:09;99812.44;;;18.07;57.69
10392;BME280;5242;49.244;6.774;2023-07-13T21:22:01;99821.13;;;17.98;56.60
10392;BME280;5242;49.244;6.774;2023-07-13T21:29:53;99821.13;;;17.87;58.65
10392;BME280;5242;49.244;6.774;2023-07-13T21:37:45;99835.66;;;17.73;58.64
10392;BME280;5242;49.244;6.774;2023-07-13T21:45:38;99830.56;;;17.57;58.88
10392;BME280;5242;49.244;6.774;2023-07-13T21:53:31;99841.19;;;17.41;60.32
10392;BME280;5242;49.244;6.774;2023-07-13T22:01:27;99835.28;;;17.39;61.10
10392;BME280;5242;49.244;6.774;2023-07-13T22:09:20;99830.94;;;17.27;60.93
10392;BME280;5242;49.244;6.774;2023-07-13T22:17:12;99830.56;;;17.29;61.42
10392;BME280;5242;49.244;6.774;2023-07-13T22:25:07;99828.19;;;17.27;62.61
10392;BME280;5242;49.244;6.774;2023-07-13T22:32:59;99830.16;;;17.27;60.56
10392;BME280;5242;49.244;6.774;2023-07-13T22:40:51;99832.06;;;17.05;62.79
10392;BME280;5242;49.244;6.774;2023-07-13T22:48:49;99815.53;;;16.80;64.05
10392;BME280;5242;49.244;6.774;2023-07-13T22:56:42;99809.63;;;16.78;63.35
10392;BME280;5242;49.244;6.774;2023-07-13T23:04:35;99816.22;;;16.66;62.58
10392;BME280;5242;49.244;6.774;2023-07-13T23:12:27;99803.59;;;16.47;65.02
10392;BME280;5242;49.244;6.774;2023-07-13T23:20:35;99804.75;;;16.39;68.49
10392;BME280;5242;49.244;6.774;2023-07-13T23:28:27;99807.88;;;16.41;67.73
10392;BME280;5242;49.244;6.774;2023-07-13T23:36:21;99799.25;;;16.42;67.97
10392;BME280;5242;49.244;6.774;2023-07-13T23:44:13;99802.75;;;16.36;67.86
10392;BME280;5242;49.244;6.774;2023-07-13T23:52:11;99797.63;;;16.30;67.49
